Airfield :
LOGIN :

Register | Disclaimer

   EN    FR    IT 

 










Legend :    VFR   Marginal VFR   IFR   Intensive IFR   Very Intensive IFR
Visi :
Ceiling :
>= 8 km
>= 3000ft
5 to 8 km
1000 to 3000 ft
1500m to 5 km
500 to 1000 ft
800 to 1500m
200 to 500 ft
< 800m
< 200 ft
Symbols :   Thunderstorms  Fog  Heavy snow  Heavy precipitations  Wind > 20 kt
SIGMETs :     Misc.  Thunderstorms  Icing  Turbulence  Mountain Waves  Volcanic Ashes






- Airport Elevation : 1234 ft
- IATA code : LUX


ELLX - Luxembourg Findel

CURRENT METAR :
  • 082220Z 24003KT 9999 BKN024 01/00 Q1003 NOSIG

EXPIRED METARs :
  • 082150Z 25004KT 9999 SCT023 00/M00 Q1002 NOSIG
  • 082120Z 18003KT CAVOK 01/00 Q1002 NOSIG
  • 082050Z 25006KT 9999 FEW022 01/M00 Q1002 NOSIG
  • 082020Z 25006KT 9999 BKN022 01/00 Q1001 NOSIG
  • 081950Z 26007KT 9999 BKN022 01/00 Q1001 NOSIG

TAF TAF ELLX
Valid from the 08 at 18:00 until the 10 at 00:00 UTC


081700Z 0818/0924 23005KT 9999 FEW040
BECMG 0823/0902 3000 BR BKN005
PROB30
TEMPO 0902/0909 0500 FG OVC002
TEMPO 0909/0913 RASN
PROB40 0912/0918 5000 BKN010
BECMG 0917/0920 0500 FG OVC005
ATIS : +352 4798 27300
Met : +352 4798 27010 / 27050



MET'MAP, your aeronautical weather chart ! - Copyright ORBIFLY December 2007 - Disclaimer

ORBIFLY MET'MAP TEAM :

Programming & Development : Alexandra Zaïnal
Concept & original design : Baudouin d'Aumeries
Assistance for programming : Marc-Olivier Méhu
Technical & hardware support : Manuel Goepfert

Contact : metmap@orbifly.com




SOURCES & CREDITS :

   NOAA